createdAt,value
2022-08-04T00:01:09.631Z,24.61
2022-08-04T00:03:44.973Z,24.87
2022-08-04T00:06:16.830Z,24.93
2022-08-04T00:08:47.628Z,25.04
2022-08-04T00:11:17.160Z,24.90
2022-08-04T00:14:03.026Z,24.68
2022-08-04T00:16:35.006Z,24.52
2022-08-04T00:19:09.619Z,24.48
2022-08-04T00:21:40.378Z,24.40
2022-08-04T00:24:11.810Z,24.45
2022-08-04T00:26:41.241Z,24.39
2022-08-04T00:29:10.629Z,24.66
2022-08-04T00:31:56.842Z,24.77
2022-08-04T00:34:26.797Z,24.83
2022-08-04T00:36:56.099Z,24.89
2022-08-04T00:39:24.148Z,24.95
2022-08-04T00:42:02.320Z,24.84
2022-08-04T00:44:41.533Z,24.78
2022-08-04T00:47:20.446Z,24.60
2022-08-04T00:50:04.555Z,24.49
2022-08-04T00:52:45.933Z,24.65
2022-08-04T00:55:24.414Z,24.78
2022-08-04T00:58:01.950Z,24.78
2022-08-04T01:00:39.067Z,24.49
2022-08-04T01:03:11.650Z,24.34
2022-08-04T01:06:03.205Z,24.21
2022-08-04T01:08:47.930Z,24.18
2022-08-04T01:11:24.722Z,24.12
2022-08-04T01:14:02.184Z,24.13
2022-08-04T01:16:33.382Z,24.11
2022-08-04T01:19:02.773Z,24.11
2022-08-04T01:22:06.313Z,24.26
2022-08-04T01:25:08.127Z,24.26
2022-08-04T01:27:50.947Z,24.18
2022-08-04T01:30:20.468Z,24.11
2022-08-04T01:32:50.574Z,24.06
2022-08-04T01:35:47.885Z,24.17
2022-08-04T01:38:21.369Z,24.17
2022-08-04T01:40:53.877Z,24.16
2022-08-04T01:43:22.569Z,24.16
2022-08-04T01:45:53.401Z,24.35
2022-08-04T01:48:25.218Z,24.42
2022-08-04T01:50:53.758Z,24.22
2022-08-04T01:53:22.365Z,24.12
2022-08-04T01:55:54.544Z,24.12
2022-08-04T01:58:25.019Z,24.21
2022-08-04T02:00:59.829Z,24.37
2022-08-04T02:04:21.128Z,24.32
2022-08-04T02:06:27.113Z,24.43
2022-08-04T02:09:04.942Z,24.45
2022-08-04T02:11:33.063Z,24.41
2022-08-04T02:14:08.268Z,24.26
2022-08-04T02:16:46.328Z,24.07
2022-08-04T02:19:25.812Z,23.95
2022-08-04T02:22:11.277Z,23.87
2022-08-04T02:24:45.345Z,23.80
2022-08-04T02:27:15.126Z,23.77
2022-08-04T02:29:48.334Z,23.81
2022-08-04T02:32:23.198Z,23.65
2022-08-04T02:34:56.055Z,23.63
2022-08-04T02:37:24.699Z,23.44
2022-08-04T02:39:54.772Z,23.45
2022-08-04T02:42:23.229Z,23.43
2022-08-04T02:44:52.346Z,23.38
2022-08-04T02:47:23.403Z,23.35
2022-08-04T02:50:13.288Z,23.28
2022-08-04T02:52:42.772Z,23.19
2022-08-04T02:55:13.370Z,23.28
2022-08-04T02:57:41.371Z,23.15
2022-08-04T03:00:11.748Z,23.17
2022-08-04T03:02:52.323Z,23.18
2022-08-04T03:05:22.531Z,23.38
2022-08-04T03:08:01.456Z,23.26
2022-08-04T03:10:59.309Z,23.16
2022-08-04T03:13:44.025Z,23.24
2022-08-04T03:16:45.288Z,23.33
2022-08-04T03:19:48.357Z,23.14
2022-08-04T03:22:41.957Z,23.21
2022-08-04T03:25:57.321Z,23.15
2022-08-04T03:29:00.537Z,22.97
2022-08-04T03:31:54.809Z,23.06
2022-08-04T03:34:47.912Z,23.18
2022-08-04T03:37:50.008Z,22.96
2022-08-04T03:40:53.838Z,23.13
2022-08-04T03:43:57.374Z,22.84
2022-08-04T03:46:54.790Z,22.80
2022-08-04T03:49:43.531Z,22.92
2022-08-04T03:52:34.302Z,22.88
2022-08-04T03:55:41.418Z,23.03
2022-08-04T03:58:53.928Z,23.13
2022-08-04T04:02:01.627Z,23.20
2022-08-04T04:04:47.269Z,23.41
2022-08-04T04:07:41.109Z,23.47
2022-08-04T04:10:31.701Z,23.43
2022-08-04T04:13:16.521Z,23.32
2022-08-04T04:16:08.368Z,23.05
2022-08-04T04:18:53.597Z,22.98
2022-08-04T04:21:44.930Z,22.96
2022-08-04T04:24:33.794Z,23.06
2022-08-04T04:27:11.045Z,23.14
2022-08-04T04:30:07.315Z,23.18
2022-08-04T04:33:09.028Z,23.30
2022-08-04T04:35:42.892Z,23.60
2022-08-04T04:38:32.675Z,23.79
2022-08-04T04:41:07.618Z,23.94
2022-08-04T04:43:57.593Z,23.83
2022-08-04T04:46:33.676Z,23.59
2022-08-04T04:49:09.585Z,23.54
2022-08-04T04:51:43.941Z,23.63
2022-08-04T04:54:24.598Z,23.77
2022-08-04T04:56:57.850Z,23.61
2022-08-04T04:59:28.811Z,23.63
2022-08-04T05:02:19.678Z,23.78
2022-08-04T05:05:15.909Z,23.90
2022-08-04T05:07:58.687Z,24.10
2022-08-04T05:10:47.877Z,24.22
2022-08-04T05:14:37.545Z,24.46
2022-08-04T05:16:20.244Z,24.67
2022-08-04T05:18:59.733Z,24.76
2022-08-04T05:21:36.548Z,24.79
2022-08-04T05:24:07.766Z,24.84
2022-08-04T05:26:42.142Z,24.92
2022-08-04T05:29:13.061Z,25.13
2022-08-04T05:31:43.871Z,25.23
2022-08-04T05:34:15.376Z,25.45
2022-08-04T05:36:46.841Z,25.62
2022-08-04T05:39:21.723Z,25.42
2022-08-04T05:41:55.702Z,25.64
2022-08-04T05:44:27.632Z,25.89
2022-08-04T05:46:57.588Z,26.07
2022-08-04T05:49:27.325Z,26.26
2022-08-04T05:51:56.888Z,26.47
2022-08-04T05:54:25.979Z,26.64
2022-08-04T05:56:56.016Z,26.88
2022-08-04T05:59:25.796Z,26.66
2022-08-04T06:01:57.905Z,27.03
2022-08-04T06:04:29.468Z,27.27
2022-08-04T06:06:57.380Z,27.24
2022-08-04T06:09:25.352Z,27.47
2022-08-04T06:12:00.720Z,27.77
2022-08-04T06:14:34.621Z,27.94
2022-08-04T06:17:03.577Z,28.20
2022-08-04T06:20:03.709Z,28.38
2022-08-04T06:22:20.812Z,28.63
2022-08-04T06:24:50.158Z,28.88
2022-08-04T06:27:20.481Z,28.99
2022-08-04T06:29:51.930Z,29.28
2022-08-04T06:32:34.676Z,29.46
2022-08-04T06:35:06.040Z,29.69
2022-08-04T06:37:42.876Z,29.78
2022-08-04T06:40:31.867Z,29.99
2022-08-04T06:43:03.396Z,30.09
2022-08-04T06:45:34.328Z,30.28
2022-08-04T06:48:03.055Z,30.20
2022-08-04T06:51:28.203Z,30.20
2022-08-04T06:53:19.888Z,30.47
2022-08-04T06:55:48.985Z,30.19
2022-08-04T06:58:18.817Z,30.43
2022-08-04T07:00:48.064Z,30.78
2022-08-04T07:03:17.918Z,30.85
2022-08-04T07:05:47.831Z,30.73
2022-08-04T07:08:16.053Z,30.56
2022-08-04T07:10:45.278Z,30.74
2022-08-04T07:13:13.782Z,30.98
2022-08-04T07:15:46.082Z,30.86
2022-08-04T07:18:14.221Z,30.90
2022-08-04T07:20:43.356Z,30.68
2022-08-04T07:23:13.738Z,31.23
2022-08-04T07:26:00.425Z,31.33
2022-08-04T07:28:31.290Z,31.39
2022-08-04T07:31:00.530Z,31.84
2022-08-04T07:33:28.965Z,32.03
2022-08-04T07:36:09.203Z,32.22
2022-08-04T07:38:48.655Z,31.93
2022-08-04T07:41:39.089Z,32.00
2022-08-04T07:44:08.607Z,32.21
2022-08-04T07:46:38.229Z,32.37
2022-08-04T07:49:06.642Z,32.60
2022-08-04T07:51:36.314Z,32.87
2022-08-04T07:54:05.332Z,32.85
2022-08-04T07:56:33.881Z,33.05
2022-08-04T07:59:01.930Z,33.51
2022-08-04T08:01:30.006Z,33.82
2022-08-04T08:04:00.587Z,33.88
2022-08-04T08:06:33.290Z,33.76
2022-08-04T08:09:13.308Z,33.83
2022-08-04T08:12:37.904Z,34.02
2022-08-04T08:14:31.894Z,33.80
2022-08-04T08:17:01.595Z,34.13
2022-08-04T08:19:31.153Z,34.53
2022-08-04T08:22:00.750Z,34.72
2022-08-04T08:24:29.265Z,34.69
2022-08-04T08:26:57.591Z,34.56
2022-08-04T08:29:26.035Z,34.72
2022-08-04T08:31:58.262Z,34.84
2022-08-04T08:34:30.422Z,35.01
2022-08-04T08:37:03.897Z,34.84
2022-08-04T08:39:37.588Z,34.56
2022-08-04T08:42:18.517Z,34.74
2022-08-04T08:45:03.209Z,35.12
2022-08-04T08:48:04.667Z,35.25
2022-08-04T08:50:54.162Z,35.39
2022-08-04T08:53:32.094Z,35.06
2022-08-04T08:56:18.240Z,35.35
2022-08-04T08:58:56.143Z,35.11
2022-08-04T09:01:43.767Z,34.88
2022-08-04T09:04:34.322Z,35.38
2022-08-04T09:07:27.286Z,35.03
2022-08-04T09:10:05.183Z,35.74
2022-08-04T09:12:39.414Z,35.84
2022-08-04T09:15:14.212Z,35.79
2022-08-04T09:17:51.792Z,35.54
2022-08-04T09:20:26.710Z,34.84
2022-08-04T09:23:06.027Z,35.52
2022-08-04T09:25:40.789Z,35.76
2022-08-04T09:28:37.230Z,36.29
2022-08-04T09:31:10.756Z,36.53
2022-08-04T09:33:46.212Z,36.66
2022-08-04T09:36:26.145Z,36.23
2022-08-04T09:39:05.551Z,36.08
2022-08-04T09:41:49.361Z,36.01
2022-08-04T09:44:50.266Z,36.62
2022-08-04T09:47:19.229Z,37.02
2022-08-04T09:49:52.169Z,36.76
2022-08-04T09:52:27.899Z,36.65
2022-08-04T09:55:03.950Z,37.04
2022-08-04T09:57:43.234Z,37.10
2022-08-04T10:00:16.597Z,36.69
2022-08-04T10:02:48.400Z,37.30
2022-08-04T10:05:21.247Z,37.32
2022-08-04T10:08:18.923Z,37.30
2022-08-04T10:10:54.710Z,37.46
2022-08-04T10:13:27.865Z,37.33
2022-08-04T10:16:06.409Z,37.85
2022-08-04T10:18:52.006Z,37.02
2022-08-04T10:21:25.201Z,36.78
2022-08-04T10:24:09.114Z,37.21
2022-08-04T10:26:47.301Z,38.05
2022-08-04T10:29:17.568Z,37.62
2022-08-04T10:31:48.268Z,37.90
2022-08-04T10:34:22.215Z,37.11
2022-08-04T10:36:57.010Z,37.58
2022-08-04T10:39:43.024Z,37.89
2022-08-04T10:42:23.386Z,37.86
2022-08-04T10:45:03.901Z,37.37
2022-08-04T10:47:36.477Z,37.41
2022-08-04T10:50:05.184Z,37.99
2022-08-04T10:52:35.846Z,38.54
2022-08-04T10:55:09.826Z,38.74
2022-08-04T10:57:41.743Z,39.01
2022-08-04T11:00:12.820Z,39.67
2022-08-04T11:02:46.414Z,39.34
2022-08-04T11:05:22.658Z,38.84
2022-08-04T11:07:52.924Z,39.28
2022-08-04T11:10:25.495Z,40.28
2022-08-04T11:12:59.344Z,39.82
2022-08-04T11:15:31.856Z,39.56
2022-08-04T11:18:03.330Z,38.74
2022-08-04T11:20:40.125Z,38.98
2022-08-04T11:23:10.666Z,38.54
2022-08-04T11:25:49.696Z,39.99
2022-08-04T11:28:32.224Z,40.37
2022-08-04T11:31:04.728Z,39.90
2022-08-04T11:33:37.610Z,40.62
2022-08-04T11:36:14.667Z,40.74
2022-08-04T11:38:51.797Z,40.93
2022-08-04T11:41:21.730Z,41.13
2022-08-04T11:44:01.920Z,41.57
2022-08-04T11:46:36.989Z,40.97
2022-08-04T11:49:08.502Z,41.97
2022-08-04T11:51:37.090Z,41.65
2022-08-04T11:54:06.019Z,40.96
2022-08-04T11:56:37.182Z,40.18
2022-08-04T11:59:08.892Z,39.51
2022-08-04T12:01:45.448Z,39.05
2022-08-04T12:04:20.016Z,38.99
2022-08-04T12:07:04.577Z,38.96
2022-08-04T12:09:54.169Z,38.08
2022-08-04T12:12:27.308Z,38.28
2022-08-04T12:15:03.514Z,39.54
2022-08-04T12:17:52.925Z,38.93
2022-08-04T12:20:38.193Z,38.03
2022-08-04T12:23:17.126Z,39.04
2022-08-04T12:25:48.625Z,38.66
2022-08-04T12:28:24.605Z,40.29
2022-08-04T12:31:04.347Z,41.47
2022-08-04T12:34:03.506Z,41.93
2022-08-04T12:36:33.116Z,40.56
2022-08-04T12:39:04.568Z,40.47
2022-08-04T12:41:36.133Z,38.99
2022-08-04T12:44:09.878Z,38.09
2022-08-04T12:47:26.495Z,37.02
2022-08-04T12:49:56.248Z,37.00
2022-08-04T12:55:19.076Z,37.14
2022-08-04T12:57:48.336Z,36.81
2022-08-04T13:00:29.550Z,37.14
2022-08-04T13:03:09.759Z,36.82
2022-08-04T13:05:40.466Z,36.51
2022-08-04T13:08:10.116Z,36.53
2022-08-04T13:10:39.855Z,37.09
2022-08-04T13:13:13.520Z,38.15
2022-08-04T13:15:46.746Z,38.77
2022-08-04T13:18:17.205Z,38.32
2022-08-04T13:20:45.869Z,37.88
2022-08-04T13:23:21.814Z,37.69
2022-08-04T13:26:43.811Z,36.98
2022-08-04T13:28:43.161Z,36.81
2022-08-04T13:31:16.915Z,36.94
2022-08-04T13:33:48.476Z,37.11
2022-08-04T13:36:18.090Z,36.95
2022-08-04T13:38:50.097Z,38.25
2022-08-04T13:41:18.806Z,38.73
2022-08-04T13:44:17.893Z,38.61
2022-08-04T13:46:40.719Z,37.54
2022-08-04T13:49:43.153Z,37.07
2022-08-04T13:52:10.770Z,36.41
2022-08-04T13:54:42.646Z,36.52
2022-08-04T13:57:14.072Z,36.66
2022-08-04T13:59:44.882Z,36.38
2022-08-04T14:02:27.539Z,36.09
2022-08-04T14:04:58.859Z,35.54
2022-08-04T14:07:27.841Z,35.58
2022-08-04T14:10:03.432Z,35.62
2022-08-04T14:12:45.294Z,35.97
2022-08-04T14:16:02.476Z,36.22
2022-08-04T14:18:23.613Z,36.16
2022-08-04T14:21:07.019Z,36.10
2022-08-04T14:23:47.681Z,36.30
2022-08-04T14:26:17.731Z,36.16
2022-08-04T14:29:09.596Z,36.75
2022-08-04T14:31:33.630Z,37.05
2022-08-04T14:34:17.919Z,37.69
2022-08-04T14:37:13.143Z,37.91
2022-08-04T14:39:41.300Z,37.46
2022-08-04T14:42:10.039Z,36.61
2022-08-04T14:44:54.846Z,36.17
2022-08-04T14:47:40.056Z,36.76
2022-08-04T14:50:09.346Z,36.68
2022-08-04T14:52:40.084Z,36.72
2022-08-04T14:55:18.757Z,36.14
2022-08-04T14:58:36.699Z,36.14
2022-08-04T15:00:36.485Z,35.47
2022-08-04T15:03:08.503Z,35.71
2022-08-04T15:06:02.008Z,35.82
2022-08-04T15:08:30.866Z,35.41
2022-08-04T15:11:02.517Z,34.81
2022-08-04T15:13:31.259Z,35.16
2022-08-04T15:16:07.575Z,35.37
2022-08-04T15:18:39.125Z,35.10
2022-08-04T15:21:08.472Z,35.10
2022-08-04T15:23:38.795Z,34.95
2022-08-04T15:26:10.746Z,34.81
2022-08-04T15:28:39.877Z,34.81
2022-08-04T15:32:03.427Z,34.33
2022-08-04T15:33:58.008Z,34.31
2022-08-04T15:36:33.087Z,34.24
2022-08-04T15:39:09.869Z,34.48
2022-08-04T15:41:46.450Z,34.37
2022-08-04T15:44:59.445Z,34.27
2022-08-04T15:47:27.681Z,34.19
2022-08-04T15:50:07.970Z,34.03
2022-08-04T15:53:10.820Z,34.05
2022-08-04T15:55:43.898Z,33.94
2022-08-04T15:58:12.934Z,34.19
2022-08-04T16:01:17.536Z,33.98
2022-08-04T16:03:57.802Z,34.04
2022-08-04T16:06:45.222Z,33.92
2022-08-04T16:09:23.863Z,33.84
2022-08-04T16:11:53.456Z,33.82
2022-08-04T16:14:38.750Z,33.71
2022-08-04T16:17:20.201Z,33.86
2022-08-04T16:20:03.227Z,34.01
2022-08-04T16:22:34.591Z,33.95
2022-08-04T16:25:02.755Z,34.11
2022-08-04T16:27:40.570Z,33.93
2022-08-04T16:30:14.155Z,34.01
2022-08-04T16:32:47.425Z,33.72
2022-08-04T16:35:24.508Z,33.61
2022-08-04T16:37:55.832Z,33.07
2022-08-04T16:40:35.871Z,32.79
2022-08-04T16:43:13.377Z,32.71
2022-08-04T16:45:55.680Z,32.51
2022-08-04T16:48:27.241Z,32.19
2022-08-04T16:51:05.485Z,32.04
2022-08-04T16:53:53.250Z,32.20
2022-08-04T16:56:30.562Z,31.98
2022-08-04T16:59:09.435Z,32.00
2022-08-04T17:01:38.391Z,32.10
2022-08-04T17:04:07.471Z,31.90
2022-08-04T17:06:37.311Z,32.13
2022-08-04T17:09:06.425Z,32.74
2022-08-04T17:11:34.433Z,34.03
2022-08-04T17:14:05.759Z,35.06
2022-08-04T17:16:37.600Z,34.98
2022-08-04T17:19:07.385Z,35.92
2022-08-04T17:21:49.114Z,36.91
2022-08-04T17:24:17.955Z,37.84
2022-08-04T17:26:51.742Z,38.29
2022-08-04T17:29:42.236Z,39.01
2022-08-04T17:32:21.737Z,37.22
2022-08-04T17:34:51.404Z,36.47
2022-08-04T17:37:38.910Z,36.38
2022-08-04T17:40:13.503Z,35.48
2022-08-04T17:42:45.373Z,35.58
2022-08-04T17:48:24.841Z,36.82
2022-08-04T17:50:54.917Z,36.80
2022-08-04T17:54:01.451Z,37.85
2022-08-04T17:56:33.177Z,38.23
2022-08-04T17:59:56.931Z,37.34
2022-08-04T18:02:08.939Z,36.26
2022-08-04T18:08:39.153Z,36.19
2022-08-04T18:10:52.713Z,35.16
2022-08-04T18:13:29.970Z,34.66
2022-08-04T18:19:11.780Z,33.56
2022-08-04T18:21:46.990Z,33.31
2022-08-04T18:24:35.545Z,33.00
2022-08-04T18:27:20.192Z,32.64
2022-08-04T18:30:15.205Z,32.56
2022-08-04T18:33:04.487Z,32.33
2022-08-04T18:36:31.411Z,32.25
2022-08-04T18:38:23.398Z,32.01
2022-08-04T18:40:56.753Z,31.62
2022-08-04T18:43:40.808Z,31.53
2022-08-04T18:49:01.011Z,31.31
2022-08-04T18:51:31.324Z,30.95
2022-08-04T18:54:02.805Z,30.80
2022-08-04T18:56:35.461Z,30.61
2022-08-04T18:59:10.320Z,30.26
2022-08-04T19:04:33.699Z,29.93
2022-08-04T19:07:24.600Z,29.72
2022-08-04T19:09:59.888Z,29.43
2022-08-04T19:12:31.404Z,29.52
2022-08-04T19:15:08.660Z,29.38
2022-08-04T19:17:53.642Z,29.08
2022-08-04T19:20:27.629Z,29.00
2022-08-04T19:24:11.378Z,28.95
2022-08-04T19:26:02.754Z,28.90
2022-08-04T19:28:36.541Z,28.94
2022-08-04T19:31:08.045Z,28.82
2022-08-04T19:33:58.616Z,28.64
2022-08-04T19:36:31.221Z,28.61
2022-08-04T19:39:02.002Z,28.44
2022-08-04T19:42:05.819Z,28.32
2022-08-04T19:44:29.982Z,28.20
2022-08-04T19:47:02.250Z,28.10
2022-08-04T19:50:05.001Z,28.11
2022-08-04T19:52:34.186Z,27.83
2022-08-04T19:55:09.629Z,27.88
2022-08-04T19:57:46.050Z,27.85
2022-08-04T20:00:33.781Z,27.67
2022-08-04T20:03:11.737Z,27.55
2022-08-04T20:05:54.294Z,27.58
2022-08-04T20:08:25.810Z,27.69
2022-08-04T20:10:55.713Z,27.60
2022-08-04T20:13:36.959Z,27.54
2022-08-04T20:16:28.776Z,27.47
2022-08-04T20:19:03.428Z,27.38
2022-08-04T20:21:54.415Z,27.48
2022-08-04T20:24:36.957Z,27.55
2022-08-04T20:27:15.129Z,27.59
2022-08-04T20:30:14.004Z,27.58
2022-08-04T20:32:52.804Z,27.43
2022-08-04T20:35:26.939Z,27.36
2022-08-04T20:38:00.779Z,27.36
2022-08-04T20:40:31.405Z,27.36
2022-08-04T20:43:01.406Z,27.51
2022-08-04T20:45:56.846Z,27.40
2022-08-04T20:48:22.608Z,27.39
2022-08-04T20:50:55.541Z,27.27
2022-08-04T20:53:46.460Z,27.27
2022-08-04T20:56:19.412Z,27.20
2022-08-04T20:59:01.475Z,27.22
2022-08-04T21:01:39.256Z,27.23
2022-08-04T21:04:28.071Z,27.17
2022-08-04T21:06:58.517Z,27.12
2022-08-04T21:09:38.032Z,26.96
2022-08-04T21:12:27.306Z,27.07
2022-08-04T21:15:01.543Z,27.04
2022-08-04T21:17:57.725Z,26.95
2022-08-04T21:20:33.542Z,26.81
2022-08-04T21:23:05.144Z,26.73
2022-08-04T21:25:42.696Z,26.78
2022-08-04T21:28:20.417Z,26.95
2022-08-04T21:30:53.965Z,26.96
2022-08-04T21:33:49.756Z,26.76
2022-08-04T21:36:16.210Z,26.63
2022-08-04T21:38:51.162Z,26.68
2022-08-04T21:41:24.740Z,26.68
2022-08-04T21:43:53.370Z,26.78
2022-08-04T21:46:21.290Z,26.86
2022-08-04T21:48:50.831Z,26.87
2022-08-04T21:51:58.694Z,26.98
2022-08-04T21:54:09.535Z,27.06
2022-08-04T21:56:40.125Z,26.96
2022-08-04T21:59:14.514Z,26.91
2022-08-04T22:01:50.407Z,26.79
2022-08-04T22:04:21.794Z,26.61
2022-08-04T22:06:52.488Z,26.44
2022-08-04T22:09:22.060Z,26.20
2022-08-04T22:14:39.369Z,26.10
2022-08-04T22:17:07.326Z,26.08
2022-08-04T22:19:55.354Z,25.87
2022-08-04T22:22:27.087Z,25.97
2022-08-04T22:25:01.153Z,25.89
2022-08-04T22:27:47.787Z,25.87
2022-08-04T22:30:24.241Z,25.85
2022-08-04T22:33:00.972Z,25.84
2022-08-04T22:35:35.450Z,25.60
2022-08-04T22:38:24.210Z,25.69
2022-08-04T22:41:01.599Z,25.60
2022-08-04T22:43:33.548Z,25.41
2022-08-04T22:46:04.983Z,25.45
2022-08-04T22:48:33.973Z,25.34
2022-08-04T22:51:03.797Z,25.31
2022-08-04T22:53:32.402Z,25.46
2022-08-04T22:56:10.056Z,25.28
2022-08-04T22:58:44.795Z,25.45
2022-08-04T23:01:15.123Z,25.41
2022-08-04T23:03:55.988Z,25.36
2022-08-04T23:06:28.635Z,25.30
2022-08-04T23:08:57.238Z,25.18
2022-08-04T23:11:34.440Z,25.33
2022-08-04T23:14:04.054Z,25.24
2022-08-04T23:16:32.458Z,25.25
2022-08-04T23:19:00.649Z,25.15
2022-08-04T23:21:40.597Z,24.99
2022-08-04T23:24:09.504Z,25.03
2022-08-04T23:26:37.583Z,25.17
2022-08-04T23:29:09.544Z,24.98
2022-08-04T23:31:40.747Z,25.09
2022-08-04T23:34:12.186Z,25.11
2022-08-04T23:36:42.519Z,25.16
2022-08-04T23:39:10.496Z,25.11
2022-08-04T23:41:54.616Z,24.87
2022-08-04T23:44:26.648Z,24.79
2022-08-04T23:46:59.428Z,25.03
2022-08-04T23:49:44.229Z,24.70
2022-08-04T23:52:23.182Z,24.59
2022-08-04T23:54:58.336Z,24.38
2022-08-04T23:57:31.593Z,24.39
